Time;durP1;ratioP1;P1;durP2;ratioP2;P2;SDS_P1;SDS_P2;PMS_P1;PMS_P2;Temp;Humidity;BMP_temperature;BMP_pressure;BME280_temperature;BME280_humidity;BME280_pressure;Samples;Min_cycle;Max_cycle;Signal;HPM_P1;HPM_P2
2022/08/21 00:00:22;;;;;;;13.00;2.00;;;18.80;99.90;;;;;;5054720;28;20171;-82
2022/08/21 00:03:09;;;;;;;3.90;1.73;;;18.80;99.90;;;;;;5055869;28;20340;-82
2022/08/21 00:05:45;;;;;;;5.72;1.80;;;18.90;99.90;;;;;;5055760;28;20241;-82
2022/08/21 00:08:11;;;;;;;3.47;1.55;;;19.00;99.90;;;;;;5057581;28;20309;-82
2022/08/21 00:10:38;;;;;;;5.95;1.85;;;19.00;99.90;;;;;;5074329;28;20206;-82
2022/08/21 00:13:05;;;;;;;4.22;1.40;;;18.90;99.90;;;;;;5075996;28;20197;-82
2022/08/21 00:15:41;;;;;;;4.75;1.77;;;18.80;99.90;;;;;;5075531;28;20250;-82
2022/08/21 00:18:10;;;;;;;3.25;1.55;;;18.80;99.90;;;;;;5074154;28;20179;-81
2022/08/21 00:20:37;;;;;;;8.77;1.88;;;18.80;99.90;;;;;;5074213;28;20163;-84
2022/08/21 00:23:03;;;;;;;5.75;1.70;;;18.70;99.90;;;;;;5074119;28;20163;-82
2022/08/21 00:25:29;;;;;;;4.80;1.67;;;18.80;99.90;;;;;;5067010;28;20546;-82
2022/08/21 00:27:56;;;;;;;7.65;1.67;;;19.00;99.90;;;;;;5054021;28;20183;-82
2022/08/21 00:30:28;;;;;;;6.63;1.83;;;18.80;99.90;;;;;;5053874;28;20203;-82
2022/08/21 00:32:56;;;;;;;5.22;1.63;;;18.50;99.90;;;;;;5071240;28;20167;-82
2022/08/21 00:35:45;;;;;;;10.57;2.17;;;18.40;99.90;;;;;;5054741;28;20179;-82
2022/08/21 00:38:11;;;;;;;4.55;1.52;;;18.50;99.90;;;;;;5057397;28;20175;-82
2022/08/21 00:40:50;;;;;;;3.95;1.88;;;18.60;99.90;;;;;;5054930;28;20793;-82
2022/08/21 00:43:20;;;;;;;2.88;1.23;;;18.40;99.90;;;;;;5055535;28;20179;-82
2022/08/21 00:45:55;;;;;;;4.80;1.58;;;18.50;99.90;;;;;;5056013;28;20163;-81
2022/08/21 00:48:25;;;;;;;3.42;1.55;;;18.50;99.90;;;;;;5055962;28;20163;-82
2022/08/21 00:51:13;;;;;;;6.20;1.40;;;18.70;99.90;;;;;;5056669;28;20218;-81
2022/08/21 00:53:41;;;;;;;4.85;1.52;;;18.40;99.90;;;;;;5055893;28;20179;-81
2022/08/21 00:56:09;;;;;;;5.47;1.35;;;18.40;99.90;;;;;;5058768;28;20708;-81
2022/08/21 00:58:37;;;;;;;7.55;1.45;;;18.10;99.90;;;;;;5055932;28;20182;-81
2022/08/21 01:01:04;;;;;;;2.33;1.50;;;18.30;99.90;;;;;;5082155;28;20289;-81
2022/08/21 01:03:31;;;;;;;4.88;1.60;;;18.30;99.90;;;;;;5094322;28;20194;-82
2022/08/21 01:05:56;;;;;;;5.60;1.52;;;18.30;99.90;;;;;;5092658;28;20176;-81
2022/08/21 01:08:38;;;;;;;6.78;1.60;;;18.10;99.90;;;;;;5094801;28;20258;-82
2022/08/21 01:11:21;;;;;;;13.90;1.85;;;18.00;99.90;;;;;;5092189;28;20249;-81
2022/08/21 01:13:48;;;;;;;10.13;1.85;;;18.00;99.90;;;;;;5094350;28;20147;-81
2022/08/21 01:16:17;;;;;;;4.43;1.77;;;17.90;99.90;;;;;;5094622;28;20248;-81
2022/08/21 01:18:44;;;;;;;3.33;1.52;;;17.80;99.90;;;;;;5081476;28;20170;-81
2022/08/21 01:21:15;;;;;;;3.83;1.58;;;17.90;99.90;;;;;;5072928;28;20191;-82
2022/08/21 01:23:44;;;;;;;6.40;1.95;;;18.00;99.90;;;;;;5072921;28;20174;-81
2022/08/21 01:26:12;;;;;;;6.53;2.20;;;18.00;99.90;;;;;;5072851;28;20177;-82
2022/08/21 01:28:45;;;;;;;3.63;1.45;;;17.90;99.90;;;;;;5071837;28;20170;-82
2022/08/21 01:31:13;;;;;;;6.80;1.75;;;18.00;99.90;;;;;;5052628;28;20683;-81
2022/08/21 01:33:40;;;;;;;6.63;1.65;;;17.90;99.90;;;;;;5053165;28;20701;-81
2022/08/21 01:36:08;;;;;;;9.07;1.67;;;17.90;99.90;;;;;;5054102;28;20164;-82
2022/08/21 01:38:34;;;;;;;5.57;1.70;;;17.90;99.90;;;;;;5054174;28;20163;-81
2022/08/21 01:41:00;;;;;;;7.20;1.90;;;18.00;99.90;;;;;;5052436;28;20191;-81
2022/08/21 01:43:26;;;;;;;7.15;1.67;;;18.00;99.90;;;;;;5052498;28;20212;-81
2022/08/21 01:45:51;;;;;;;7.50;1.50;;;18.10;99.90;;;;;;5052481;28;20269;-81
2022/08/21 01:48:17;;;;;;;6.18;1.60;;;18.10;99.90;;;;;;5052358;28;20260;-82
2022/08/21 01:50:43;;;;;;;1.63;1.38;;;18.10;99.90;;;;;;5061219;28;20225;-82
2022/08/21 01:53:09;;;;;;;2.35;1.55;;;17.90;99.90;;;;;;5072654;28;20583;-81
2022/08/21 01:55:34;;;;;;;5.82;1.38;;;17.80;99.90;;;;;;5072294;28;20525;-81
2022/08/21 01:58:00;;;;;;;4.68;1.73;;;17.80;99.90;;;;;;5073380;28;20162;-81
2022/08/21 02:00:26;;;;;;;13.40;1.83;;;18.00;99.90;;;;;;5073174;28;20170;-81
2022/08/21 02:02:52;;;;;;;8.52;1.55;;;18.10;99.90;;;;;;5073479;28;20173;-80
2022/08/21 02:05:18;;;;;;;3.75;1.60;;;18.10;99.90;;;;;;5073349;28;20171;-81
2022/08/21 02:07:48;;;;;;;6.18;1.77;;;18.00;99.90;;;;;;5072254;28;20194;-81
2022/08/21 02:10:17;;;;;;;6.75;1.27;;;17.90;99.90;;;;;;5073308;28;20259;-81
2022/08/21 02:12:43;;;;;;;5.47;2.22;;;17.60;99.90;;;;;;5071802;28;20514;-81
2022/08/21 02:15:09;;;;;;;3.05;1.40;;;17.60;99.90;;;;;;5071564;28;20215;-81
2022/08/21 02:17:48;;;;;;;7.03;1.65;;;17.60;99.90;;;;;;5072970;28;20169;-81
2022/08/21 02:20:30;;;;;;;12.35;2.10;;;17.50;99.90;;;;;;5071786;28;20277;-81
2022/08/21 02:22:56;;;;;;;8.43;1.70;;;17.60;99.90;;;;;;5073003;28;20166;-82
2022/08/21 02:25:24;;;;;;;4.78;1.80;;;17.50;99.90;;;;;;5072333;28;20180;-81
2022/08/21 02:27:50;;;;;;;5.13;1.77;;;17.40;99.90;;;;;;5072776;28;20222;-83
2022/08/21 02:30:38;;;;;;;2.85;1.58;;;17.40;99.90;;;;;;5057143;28;20234;-83
2022/08/21 02:33:05;;;;;;;3.67;1.20;;;17.70;99.90;;;;;;5051581;28;20217;-83
2022/08/21 02:35:31;;;;;;;2.95;1.80;;;17.60;99.90;;;;;;5051441;28;20175;-83
2022/08/21 02:38:03;;;;;;;12.07;1.85;;;17.60;99.90;;;;;;5052763;28;20167;-82
2022/08/21 02:40:32;;;;;;;3.80;1.52;;;17.60;99.90;;;;;;5051328;28;20179;-83
2022/08/21 02:43:02;;;;;;;6.95;2.15;;;17.50;99.90;;;;;;5051463;28;20167;-82
2022/08/21 02:45:28;;;;;;;2.78;1.42;;;17.40;99.90;;;;;;5052630;28;20634;-83
2022/08/21 02:48:00;;;;;;;5.45;1.23;;;17.30;99.90;;;;;;5052683;28;20251;-82
2022/08/21 02:50:29;;;;;;;8.18;1.40;;;17.10;99.90;;;;;;5052398;28;20260;-81
2022/08/21 02:52:56;;;;;;;3.97;1.50;;;17.00;99.90;;;;;;5052617;28;20163;-82
2022/08/21 02:55:25;;;;;;;8.32;2.00;;;17.10;99.90;;;;;;5051298;28;20163;-83
2022/08/21 02:57:51;;;;;;;3.78;2.00;;;17.10;99.90;;;;;;5051339;28;20254;-83
2022/08/21 03:00:17;;;;;;;8.07;1.50;;;17.00;99.90;;;;;;5050802;28;20163;-82
2022/08/21 03:02:46;;;;;;;6.18;1.10;;;17.10;99.90;;;;;;5051093;28;20174;-81
2022/08/21 03:05:14;;;;;;;3.85;1.48;;;17.20;99.90;;;;;;5051062;28;20168;-81
2022/08/21 03:07:40;;;;;;;3.05;1.58;;;17.10;99.90;;;;;;5050921;28;20566;-83
2022/08/21 03:10:06;;;;;;;4.50;1.60;;;17.00;99.90;;;;;;5050821;28;20205;-83
2022/08/21 03:12:32;;;;;;;6.75;1.70;;;17.10;99.90;;;;;;5050683;28;20190;-81
2022/08/21 03:14:57;;;;;;;6.45;1.85;;;17.00;99.90;;;;;;5052878;28;20175;-82
2022/08/21 03:17:24;;;;;;;6.30;1.88;;;17.00;99.90;;;;;;5052089;28;20190;-82
2022/08/21 03:19:50;;;;;;;4.78;1.63;;;17.30;99.90;;;;;;5051078;28;20188;-81
2022/08/21 03:22:17;;;;;;;13.85;1.88;;;17.30;99.90;;;;;;5050647;28;20191;-82
2022/08/21 03:24:42;;;;;;;4.82;1.85;;;17.10;99.90;;;;;;5052098;28;20195;-82
2022/08/21 03:27:08;;;;;;;5.25;1.45;;;17.20;99.90;;;;;;5052108;28;20222;-81
2022/08/21 03:29:33;;;;;;;4.30;1.83;;;17.10;99.90;;;;;;5050623;28;20195;-81
2022/08/21 03:31:59;;;;;;;9.55;1.60;;;17.00;99.90;;;;;;5050659;28;20237;-82
2022/08/21 03:34:25;;;;;;;3.83;1.55;;;17.10;99.90;;;;;;5051883;28;20217;-82
2022/08/21 03:36:51;;;;;;;6.97;1.85;;;17.10;99.90;;;;;;5052001;28;20174;-82
2022/08/21 03:39:17;;;;;;;6.05;1.63;;;17.10;99.90;;;;;;5050638;28;20253;-82
2022/08/21 03:41:42;;;;;;;6.07;1.77;;;17.00;99.90;;;;;;5050715;28;20763;-82
2022/08/21 03:44:08;;;;;;;3.60;1.63;;;17.00;99.90;;;;;;5050738;28;20175;-82
2022/08/21 03:46:34;;;;;;;5.15;1.90;;;17.00;99.90;;;;;;5051842;28;20670;-83
2022/08/21 03:49:00;;;;;;;5.88;1.45;;;17.20;99.90;;;;;;5052050;28;20290;-81
2022/08/21 03:51:26;;;;;;;3.13;1.35;;;17.20;99.90;;;;;;5050239;28;20183;-81
2022/08/21 03:53:52;;;;;;;7.45;1.38;;;17.20;99.90;;;;;;5051678;28;20182;-81
2022/08/21 03:56:17;;;;;;;7.28;1.25;;;17.10;99.90;;;;;;5050767;28;20372;-81
2022/08/21 03:58:44;;;;;;;8.60;1.73;;;17.10;99.90;;;;;;5050445;28;20174;-81
2022/08/21 04:01:11;;;;;;;9.60;1.88;;;17.10;99.90;;;;;;5060158;28;20190;-82
2022/08/21 04:03:37;;;;;;;5.68;1.40;;;17.00;99.90;;;;;;5070322;28;20166;-82
2022/08/21 04:06:03;;;;;;;6.47;1.63;;;16.90;99.90;;;;;;5070639;28;20175;-81
2022/08/21 04:08:29;;;;;;;8.27;1.40;;;16.90;99.90;;;;;;5070372;28;20244;-81
2022/08/21 04:10:57;;;;;;;3.72;1.42;;;16.80;99.90;;;;;;5070447;28;20751;-81
2022/08/21 04:13:24;;;;;;;5.13;1.92;;;16.90;99.90;;;;;;5070403;28;20698;-81
2022/08/21 04:15:50;;;;;;;6.85;1.38;;;16.80;99.90;;;;;;5072021;28;20627;-84
2022/08/21 04:18:16;;;;;;;5.90;1.48;;;16.70;99.90;;;;;;5070425;28;20166;-86
2022/08/21 04:20:44;;;;;;;5.72;1.33;;;16.80;99.90;;;;;;5071211;28;20212;-81
2022/08/21 04:23:10;;;;;;;6.68;1.27;;;16.80;99.90;;;;;;5066403;28;20203;-81
2022/08/21 04:25:36;;;;;;;10.75;1.92;;;16.80;99.90;;;;;;5050495;28;20210;-83
2022/08/21 04:28:02;;;;;;;9.52;1.83;;;16.80;99.90;;;;;;5052014;28;20167;-82
2022/08/21 04:30:28;;;;;;;8.77;2.05;;;16.80;99.90;;;;;;5050858;28;20207;-82
2022/08/21 04:32:53;;;;;;;8.43;2.28;;;16.90;99.90;;;;;;5050157;28;20296;-82
2022/08/21 04:35:22;;;;;;;7.65;1.70;;;17.00;99.90;;;;;;5050267;28;20182;-81
2022/08/21 04:37:48;;;;;;;7.72;2.20;;;17.00;99.90;;;;;;5050190;28;20176;-82
2022/08/21 04:40:15;;;;;;;2.95;1.50;;;17.00;99.90;;;;;;5053925;28;20585;-81
2022/08/21 04:42:50;;;;;;;7.55;1.50;;;16.90;99.90;;;;;;5070091;28;20201;-81
2022/08/21 04:45:20;;;;;;;3.72;1.45;;;16.90;99.90;;;;;;5071759;28;20198;-81
2022/08/21 04:47:46;;;;;;;3.25;1.63;;;17.00;99.90;;;;;;5074809;28;20193;-81
2022/08/21 04:50:12;;;;;;;5.45;1.40;;;17.20;99.90;;;;;;5072998;28;20210;-81
2022/08/21 04:52:38;;;;;;;6.18;2.05;;;17.10;99.90;;;;;;5074615;28;20324;-81
2022/08/21 04:55:04;;;;;;;3.22;1.50;;;17.10;99.90;;;;;;5073281;28;20773;-84
2022/08/21 04:57:29;;;;;;;3.47;1.30;;;16.90;99.90;;;;;;5073788;28;20662;-82
2022/08/21 04:59:55;;;;;;;7.40;1.30;;;16.80;99.90;;;;;;5074702;28;20266;-81
2022/08/21 05:02:21;;;;;;;8.82;1.63;;;16.80;99.90;;;;;;5073520;28;20186;-82
2022/08/21 05:04:51;;;;;;;3.80;1.80;;;16.80;99.90;;;;;;5073748;28;20231;-82
2022/08/21 05:07:21;;;;;;;2.08;1.35;;;16.70;99.90;;;;;;5075649;28;20186;-81
2022/08/21 05:09:47;;;;;;;4.47;1.58;;;16.70;99.90;;;;;;5074428;28;20210;-81
2022/08/21 05:12:13;;;;;;;8.10;2.17;;;16.70;99.90;;;;;;5077026;28;20174;-81
2022/08/21 05:14:39;;;;;;;4.10;1.50;;;16.80;99.90;;;;;;5073950;28;20189;-82
2022/08/21 05:17:05;;;;;;;3.83;1.42;;;17.00;99.90;;;;;;5074491;28;20561;-83
2022/08/21 05:19:31;;;;;;;9.07;2.10;;;16.90;99.90;;;;;;5073456;28;20175;-82
2022/08/21 05:21:57;;;;;;;7.93;2.00;;;16.80;99.90;;;;;;5072967;28;20186;-83
2022/08/21 05:24:23;;;;;;;4.10;1.40;;;16.90;99.90;;;;;;5073272;28;20561;-82
2022/08/21 05:26:49;;;;;;;3.50;1.40;;;16.90;99.90;;;;;;5074134;28;20212;-81
2022/08/21 05:29:16;;;;;;;3.13;1.08;;;16.90;99.90;;;;;;5067205;28;20601;-82
2022/08/21 05:31:41;;;;;;;5.43;1.88;;;17.10;99.90;;;;;;5061951;28;20210;-83
2022/08/21 05:34:07;;;;;;;3.08;1.83;;;17.40;99.90;;;;;;5072999;28;20167;-82
2022/08/21 05:36:33;;;;;;;5.22;1.55;;;17.50;99.90;;;;;;5072497;28;20202;-82
2022/08/21 05:38:59;;;;;;;8.30;1.75;;;17.40;99.90;;;;;;5074304;28;20217;-82
2022/08/21 05:41:24;;;;;;;9.05;1.60;;;17.60;99.90;;;;;;5073149;28;20612;-83
2022/08/21 05:43:50;;;;;;;4.82;1.60;;;17.70;99.90;;;;;;5074887;28;20548;-84
2022/08/21 05:46:16;;;;;;;6.38;1.20;;;17.70;99.90;;;;;;5075331;28;20170;-84
2022/08/21 05:48:41;;;;;;;8.32;1.52;;;17.80;99.90;;;;;;5066451;28;20648;-83
2022/08/21 05:51:10;;;;;;;2.78;1.17;;;17.90;99.90;;;;;;5054400;28;20333;-84
2022/08/21 05:53:36;;;;;;;7.00;1.50;;;17.90;99.90;;;;;;5053717;28;20186;-83
2022/08/21 05:56:03;;;;;;;3.67;1.40;;;17.90;99.90;;;;;;5054191;28;20262;-88
2022/08/21 05:58:30;;;;;;;6.60;1.60;;;17.80;99.90;;;;;;5056649;28;20164;-82
2022/08/21 06:00:55;;;;;;;9.63;1.67;;;17.90;99.90;;;;;;5061174;28;20195;-84
2022/08/21 06:03:25;;;;;;;2.42;1.20;;;18.10;99.90;;;;;;5060110;28;20180;-84
2022/08/21 06:05:52;;;;;;;5.15;1.30;;;18.20;99.90;;;;;;5055528;28;20186;-83
2022/08/21 06:08:19;;;;;;;4.72;1.60;;;18.20;99.90;;;;;;5052978;28;20175;-86
2022/08/21 06:10:45;;;;;;;5.35;1.23;;;18.30;99.90;;;;;;5052276;28;20218;-87
2022/08/21 06:13:12;;;;;;;3.38;1.25;;;18.10;99.90;;;;;;5052745;28;20173;-87
2022/08/21 06:15:38;;;;;;;5.68;1.08;;;18.00;99.90;;;;;;5053761;28;20170;-84
2022/08/21 06:18:04;;;;;;;2.38;1.42;;;18.10;99.90;;;;;;5053239;28;20171;-83
2022/08/21 06:20:31;;;;;;;5.05;1.50;;;18.20;99.90;;;;;;5052796;28;20171;-84
2022/08/21 06:22:56;;;;;;;6.57;1.40;;;18.10;99.90;;;;;;5053954;28;20168;-83
2022/08/21 06:25:22;;;;;;;5.05;1.38;;;18.20;99.90;;;;;;5053373;28;20167;-83
2022/08/21 06:27:48;;;;;;;7.13;1.45;;;18.20;99.90;;;;;;5053706;28;20218;-84
2022/08/21 06:30:14;;;;;;;13.57;1.60;;;18.10;99.90;;;;;;5051893;28;20233;-83
2022/08/21 06:32:39;;;;;;;4.82;1.60;;;18.00;99.90;;;;;;5051946;28;20260;-83
2022/08/21 06:35:06;;;;;;;3.30;1.30;;;18.30;99.90;;;;;;5051787;28;20632;-82
2022/08/21 06:37:33;;;;;;;6.13;1.35;;;18.30;99.90;;;;;;5051728;28;20619;-82
2022/08/21 06:39:59;;;;;;;3.63;1.40;;;18.70;99.90;;;;;;5052239;28;20356;-84
2022/08/21 06:42:24;;;;;;;10.25;1.95;;;18.90;99.90;;;;;;5068158;28;20735;-83
2022/08/21 06:44:50;;;;;;;5.60;1.42;;;19.30;99.90;;;;;;5052806;28;20712;-82
2022/08/21 06:47:16;;;;;;;9.85;1.67;;;19.50;99.90;;;;;;5068713;28;20616;-81
2022/08/21 06:49:41;;;;;;;5.40;1.13;;;19.70;99.90;;;;;;5051612;28;20203;-81
2022/08/21 06:52:12;;;;;;;4.88;1.48;;;19.70;99.90;;;;;;5053251;28;20191;-82
2022/08/21 06:54:38;;;;;;;5.10;1.60;;;19.60;99.90;;;;;;5054286;28;20224;-79
2022/08/21 06:57:04;;;;;;;8.65;1.60;;;19.60;99.90;;;;;;5063269;28;20287;-79
2022/08/21 06:59:30;;;;;;;6.03;1.42;;;19.60;99.90;;;;;;5071634;28;20616;-80
2022/08/21 07:01:55;;;;;;;3.90;1.38;;;19.50;99.90;;;;;;5072782;28;20182;-79
2022/08/21 07:04:21;;;;;;;4.22;1.27;;;19.50;99.90;;;;;;5073797;28;20598;-82
2022/08/21 07:06:47;;;;;;;8.38;1.25;;;19.60;99.90;;;;;;5074203;28;20178;-80
2022/08/21 07:09:12;;;;;;;4.88;1.45;;;19.50;99.90;;;;;;5073312;28;20200;-80
2022/08/21 07:11:38;;;;;;;4.05;1.13;;;19.60;99.90;;;;;;5072547;28;20236;-78
2022/08/21 07:14:04;;;;;;;5.60;1.38;;;19.80;99.90;;;;;;5061826;28;20182;-78
2022/08/21 07:16:29;;;;;;;5.82;1.83;;;19.50;99.90;;;;;;5052802;28;20189;-78
2022/08/21 07:18:55;;;;;;;4.32;1.17;;;19.50;99.90;;;;;;5053032;28;20700;-80
2022/08/21 07:21:21;;;;;;;4.88;1.13;;;19.50;99.90;;;;;;5051297;28;20207;-78
2022/08/21 07:23:50;;;;;;;3.20;1.42;;;19.80;99.90;;;;;;5052818;28;20167;-78
2022/08/21 07:26:20;;;;;;;7.13;1.40;;;20.00;99.90;;;;;;5052367;28;20163;-79
2022/08/21 07:28:46;;;;;;;6.15;1.48;;;20.10;99.90;;;;;;5054105;28;20167;-80
2022/08/21 07:31:15;;;;;;;8.75;1.50;;;20.10;99.90;;;;;;5071209;28;20267;-79
2022/08/21 07:33:42;;;;;;;7.07;1.25;;;20.10;99.90;;;;;;5072020;28;20177;-80
2022/08/21 07:36:08;;;;;;;8.35;1.27;;;20.20;99.90;;;;;;5068383;28;20266;-80
2022/08/21 07:38:34;;;;;;;2.72;1.90;;;20.40;99.90;;;;;;5069008;28;20265;-80
2022/08/21 07:41:01;;;;;;;8.50;3.08;;;20.40;99.90;;;;;;5070905;28;20250;-80
2022/08/21 07:43:28;;;;;;;15.05;1.85;;;20.30;99.90;;;;;;5072327;28;20692;-80
2022/08/21 07:45:54;;;;;;;6.60;2.65;;;20.50;99.90;;;;;;5072355;28;20498;-81
2022/08/21 07:48:23;;;;;;;5.88;1.48;;;20.70;99.90;;;;;;5075277;28;20167;-86
2022/08/21 07:50:50;;;;;;;4.53;1.80;;;20.80;99.90;;;;;;5075503;28;20697;-87
2022/08/21 07:53:16;;;;;;;7.57;2.30;;;20.80;99.90;;;;;;5075391;28;20143;-88
2022/08/21 07:55:42;;;;;;;4.40;1.38;;;21.00;99.90;;;;;;5062986;28;20532;-87
2022/08/21 07:58:08;;;;;;;7.78;2.05;;;21.10;99.90;;;;;;5055187;28;20182;-90
2022/08/21 08:00:34;;;;;;;6.82;1.83;;;21.10;99.90;;;;;;5054715;28;20670;-82
2022/08/21 08:03:00;;;;;;;7.13;1.67;;;21.10;99.90;;;;;;5055279;28;20155;-87
2022/08/21 08:05:28;;;;;;;4.85;1.25;;;21.30;99.90;;;;;;5067161;28;20182;-87
2022/08/21 08:07:54;;;;;;;7.68;1.85;;;21.40;99.90;;;;;;5073160;28;20186;-88
2022/08/21 08:10:20;;;;;;;5.85;1.15;;;21.50;99.90;;;;;;5072901;28;20198;-88
2022/08/21 08:12:46;;;;;;;6.93;1.83;;;21.60;99.90;;;;;;5072752;28;20162;-82
2022/08/21 08:15:17;;;;;;;13.07;1.58;;;21.50;99.90;;;;;;5072037;28;20174;-86
2022/08/21 08:17:43;;;;;;;5.55;1.65;;;21.50;99.90;;;;;;5071362;28;20649;-86
2022/08/21 08:20:10;;;;;;;9.50;1.58;;;21.40;99.90;;;;;;5076265;28;20162;-87
2022/08/21 08:22:37;;;;;;;8.20;1.40;;;21.60;99.90;;;;;;5059217;28;20276;-88
2022/08/21 08:25:04;;;;;;;7.57;2.05;;;21.60;99.90;;;;;;5055839;28;20189;-89
2022/08/21 08:27:30;;;;;;;7.80;1.80;;;21.70;99.90;;;;;;5056393;28;20163;-83
2022/08/21 08:29:56;;;;;;;3.45;1.38;;;21.70;99.90;;;;;;5055276;28;20261;-82
2022/08/21 08:32:22;;;;;;;6.43;1.45;;;21.60;99.90;;;;;;5056673;28;20533;-84
2022/08/21 08:34:49;;;;;;;13.20;1.80;;;21.90;99.90;;;;;;5056397;28;20192;-91
2022/08/21 08:37:16;;;;;;;4.40;1.20;;;22.00;99.90;;;;;;5056150;28;20262;-88
2022/08/21 08:39:41;;;;;;;9.73;1.60;;;21.90;99.90;;;;;;5071575;28;20182;-89
2022/08/21 08:42:19;;;;;;;8.45;1.38;;;21.80;99.90;;;;;;5076138;28;20193;-84
2022/08/21 08:44:46;;;;;;;6.50;1.17;;;22.10;99.90;;;;;;5077206;28;20178;-87
2022/08/21 08:47:15;;;;;;;4.57;1.08;;;22.20;99.90;;;;;;5076198;28;20622;-90
2022/08/21 08:49:58;;;;;;;6.45;1.45;;;22.30;99.90;;;;;;5075848;28;20248;-83
2022/08/21 08:52:33;;;;;;;4.13;1.25;;;22.30;99.90;;;;;;5092995;28;20197;-84
2022/08/21 08:55:07;;;;;;;6.75;1.42;;;22.20;99.90;;;;;;5091552;28;20165;-84
2022/08/21 08:57:35;;;;;;;6.05;1.63;;;22.20;99.90;;;;;;5056579;28;20220;-84
2022/08/21 09:00:08;;;;;;;9.80;1.55;;;22.20;99.90;;;;;;5055672;28;20574;-83
2022/08/21 09:02:34;;;;;;;10.18;1.13;;;22.40;99.90;;;;;;5056836;28;20547;-84
2022/08/21 09:05:00;;;;;;;15.95;2.05;;;22.50;99.90;;;;;;5095756;28;20165;-85
2022/08/21 09:07:38;;;;;;;8.63;2.25;;;22.50;99.90;;;;;;5096512;28;20268;-83
2022/08/21 09:10:18;;;;;;;9.93;1.20;;;22.50;99.90;;;;;;5097638;28;20276;-84
2022/08/21 09:13:09;;;;;;;3.95;1.20;;;22.80;99.90;;;;;;5086277;28;20222;-84
2022/08/21 09:15:53;;;;;;;6.68;1.35;;;22.90;99.90;;;;;;5078994;28;20665;-86
2022/08/21 09:18:25;;;;;;;15.52;2.22;;;22.90;99.90;;;;;;5079001;28;20167;-84
2022/08/21 09:21:04;;;;;;;11.23;1.35;;;23.00;99.90;;;;;;5080071;28;20195;-83
2022/08/21 09:24:10;;;;;;;3.90;1.70;;;22.90;99.90;;;;;;5078302;28;20174;-84
2022/08/21 09:27:00;;;;;;;5.47;1.23;;;22.90;99.90;;;;;;5074217;28;20177;-84
2022/08/21 09:29:29;;;;;;;4.25;1.20;;;23.10;99.90;;;;;;5072307;28;20220;-84
2022/08/21 09:31:55;;;;;;;7.53;1.42;;;23.40;99.90;;;;;;5073392;28;20182;-83
2022/08/21 09:34:29;;;;;;;4.18;0.93;;;23.90;99.90;;;;;;5073953;28;20185;-84
2022/08/21 09:36:56;;;;;;;6.43;1.50;;;24.40;99.90;;;;;;5074940;28;20170;-84
2022/08/21 09:39:37;;;;;;;5.53;1.52;;;24.50;99.90;;;;;;5074537;28;20182;-84
2022/08/21 09:42:08;;;;;;;4.85;1.20;;;24.80;99.90;;;;;;5075036;28;20186;-84
2022/08/21 09:44:43;;;;;;;5.05;1.13;;;25.10;99.90;;;;;;5073475;28;20205;-90
2022/08/21 09:47:12;;;;;;;12.15;1.00;;;25.10;99.90;;;;;;5066151;28;20178;-87
2022/08/21 09:49:40;;;;;;;4.00;1.02;;;25.00;99.90;;;;;;5055305;28;20681;-84
2022/08/21 09:52:18;;;;;;;4.55;1.27;;;24.80;99.90;;;;;;5055447;28;20190;-86
2022/08/21 09:54:46;;;;;;;5.75;1.77;;;24.70;99.90;;;;;;5057779;28;20163;-90
2022/08/21 10:00:17;;;;;;;5.45;1.00;;;24.60;99.90;;;;;;5059451;28;20392;-90
2022/08/21 10:02:43;;;;;;;4.57;1.42;;;24.70;99.90;;;;;;5054788;28;20202;-85
2022/08/21 10:05:22;;;;;;;9.63;1.30;;;24.50;99.90;;;;;;5066634;28;20174;-86
2022/08/21 10:07:49;;;;;;;4.32;1.00;;;24.40;99.90;;;;;;5070452;28;20182;-86
2022/08/21 10:10:18;;;;;;;11.15;1.52;;;24.30;99.90;;;;;;5073321;28;20210;-85
2022/08/21 10:13:06;;;;;;;5.65;1.35;;;24.00;99.90;;;;;;5072444;28;20210;-84
2022/08/21 10:15:35;;;;;;;5.20;1.48;;;23.90;99.90;;;;;;5058884;28;20748;-83
2022/08/21 10:18:24;;;;;;;9.27;1.65;;;23.70;99.90;;;;;;5054105;28;20178;-85
2022/08/21 10:21:13;;;;;;;8.48;1.85;;;23.60;99.90;;;;;;5061891;28;20221;-85
2022/08/21 10:23:49;;;;;;;8.80;1.58;;;23.50;99.90;;;;;;5053172;28;20262;-86
2022/08/21 10:26:52;;;;;;;4.75;1.33;;;23.50;99.90;;;;;;5053396;28;20174;-82
2022/08/21 10:29:39;;;;;;;6.78;1.75;;;23.60;99.90;;;;;;5051488;28;20195;-84
2022/08/21 10:32:27;;;;;;;9.07;1.25;;;23.90;99.90;;;;;;5051404;28;20198;-82
2022/08/21 10:35:09;;;;;;;6.30;1.92;;;24.00;99.90;;;;;;5052414;28;20178;-84
2022/08/21 10:38:15;;;;;;;13.45;2.60;;;23.80;99.90;;;;;;5052253;28;20178;-83
2022/08/21 10:40:50;;;;;;;7.60;1.60;;;23.60;99.90;;;;;;5051599;28;20240;-83
2022/08/21 10:44:13;;;;;;;6.90;1.33;;;23.70;99.90;;;;;;5051216;28;20166;-85
2022/08/21 10:46:51;;;;;;;3.58;1.27;;;24.10;99.90;;;;;;5069278;28;20183;-84
2022/08/21 10:49:45;;;;;;;10.60;1.40;;;24.30;99.90;;;;;;5069234;28;20198;-83
2022/08/21 10:52:46;;;;;;;6.45;1.77;;;24.50;99.90;;;;;;5054398;28;20370;-84
2022/08/21 10:55:32;;;;;;;9.43;2.22;;;24.40;99.90;;;;;;5073407;28;20241;-86
2022/08/21 10:58:02;;;;;;;17.17;2.28;;;24.20;99.90;;;;;;5061823;28;20190;-86
2022/08/21 11:00:53;;;;;;;6.55;1.45;;;24.40;99.90;;;;;;5055584;28;20171;-86
2022/08/21 11:03:38;;;;;;;4.20;1.27;;;24.60;99.90;;;;;;5058221;28;20760;-86
2022/08/21 11:06:26;;;;;;;3.90;1.42;;;24.80;99.90;;;;;;5051708;28;20170;-85
2022/08/21 11:09:12;;;;;;;8.90;1.83;;;24.90;99.90;;;;;;5059509;28;20190;-84
2022/08/21 11:12:15;;;;;;;6.93;1.90;;;24.70;99.90;;;;;;5066378;28;20214;-85
2022/08/21 11:15:07;;;;;;;7.68;2.00;;;24.70;99.90;;;;;;5053809;28;20198;-83
2022/08/21 11:17:43;;;;;;;7.75;1.77;;;24.80;99.90;;;;;;5052727;28;20639;-83
2022/08/21 11:20:38;;;;;;;3.67;1.25;;;24.70;99.90;;;;;;5052989;28;20185;-87
2022/08/21 11:23:13;;;;;;;2.80;1.48;;;24.40;99.90;;;;;;5054780;28;20174;-87
2022/08/21 11:25:49;;;;;;;11.52;2.05;;;24.30;99.90;;;;;;5052842;28;20646;-88
2022/08/21 11:28:30;;;;;;;6.53;1.92;;;24.60;99.90;;;;;;5058016;28;20202;-89
2022/08/21 11:31:31;;;;;;;7.28;1.50;;;25.10;99.90;;;;;;5058966;28;20215;-89
2022/08/21 11:34:38;;;;;;;5.03;1.25;;;25.50;99.90;;;;;;5064680;28;20175;-87
2022/08/21 11:37:34;;;;;;;5.78;1.77;;;25.50;99.90;;;;;;5052631;28;20170;-87
2022/08/21 11:40:11;;;;;;;10.25;1.55;;;25.40;99.90;;;;;;5054643;28;20179;-87
2022/08/21 11:42:56;;;;;;;3.95;1.58;;;25.40;99.90;;;;;;5067604;28;20186;-87
2022/08/21 11:45:46;;;;;;;4.70;1.35;;;25.00;99.90;;;;;;5067477;28;20213;-84
2022/08/21 11:48:43;;;;;;;5.50;1.48;;;24.80;99.90;;;;;;5060895;28;20691;-83
2022/08/21 11:51:46;;;;;;;11.77;3.15;;;25.20;99.90;;;;;;5059420;28;20220;-86
2022/08/21 11:54:53;;;;;;;8.25;1.90;;;25.10;99.90;;;;;;5061313;28;20284;-86
2022/08/21 11:57:53;;;;;;;3.80;1.27;;;25.40;99.90;;;;;;5069230;28;20215;-86
2022/08/21 12:00:26;;;;;;;5.18;1.45;;;25.50;99.90;;;;;;5061202;28;20193;-88
2022/08/21 12:03:16;;;;;;;5.28;1.60;;;25.50;99.90;;;;;;5063466;28;20182;-89
2022/08/21 12:05:52;;;;;;;9.05;1.30;;;25.70;99.90;;;;;;5059025;28;20648;-90
2022/08/21 12:08:39;;;;;;;13.20;1.63;;;25.90;99.90;;;;;;5061015;28;20276;-89
2022/08/21 12:11:09;;;;;;;7.25;2.15;;;26.20;99.90;;;;;;5055780;28;20674;-89
2022/08/21 12:13:51;;;;;;;8.98;1.30;;;26.40;99.90;;;;;;5059926;28;20209;-90
2022/08/21 12:16:29;;;;;;;4.43;1.42;;;26.10;99.90;;;;;;5075222;28;20171;-91
2022/08/21 12:19:14;;;;;;;8.60;1.63;;;26.30;99.90;;;;;;5069304;28;20171;-88
2022/08/21 12:21:54;;;;;;;6.85;2.00;;;26.40;99.90;;;;;;5065839;28;20194;-87
2022/08/21 12:24:32;;;;;;;8.13;1.50;;;26.60;99.90;;;;;;5071788;28;20174;-86
2022/08/21 12:27:14;;;;;;;6.20;1.70;;;26.20;99.90;;;;;;5064719;28;20635;-92
2022/08/21 12:29:46;;;;;;;5.15;1.60;;;26.30;99.90;;;;;;5064755;28;20292;-87
2022/08/21 12:32:15;;;;;;;8.88;1.70;;;26.40;99.90;;;;;;5059939;28;20610;-89
2022/08/21 12:34:50;;;;;;;8.25;1.23;;;26.50;99.90;;;;;;5064673;28;20214;-87
2022/08/21 12:37:27;;;;;;;5.10;1.63;;;26.40;99.90;;;;;;5056442;28;20171;-91
2022/08/21 12:39:54;;;;;;;3.78;1.00;;;25.90;99.90;;;;;;5065931;28;20209;-86
2022/08/21 12:42:31;;;;;;;4.35;1.40;;;25.80;99.90;;;;;;5072581;28;20359;-85
2022/08/21 12:45:03;;;;;;;14.10;2.20;;;25.90;99.90;;;;;;5071506;28;20187;-84
2022/08/21 12:47:47;;;;;;;5.53;1.85;;;26.10;99.90;;;;;;5063970;28;20181;-83
2022/08/21 12:50:20;;;;;;;4.28;1.55;;;25.80;99.90;;;;;;5066308;28;20323;-84
2022/08/21 12:53:10;;;;;;;3.40;1.15;;;25.60;99.90;;;;;;5064994;28;20213;-82
2022/08/21 12:55:41;;;;;;;11.18;2.10;;;25.50;99.90;;;;;;5059462;28;20647;-84
2022/08/21 12:58:15;;;;;;;6.07;1.52;;;25.40;99.90;;;;;;5062736;28;20202;-83
2022/08/21 13:00:52;;;;;;;8.45;1.25;;;25.60;99.90;;;;;;5075532;28;20221;-86
2022/08/21 13:03:19;;;;;;;3.97;1.73;;;25.60;99.90;;;;;;5065970;28;20206;-86
2022/08/21 13:05:48;;;;;;;12.10;2.85;;;25.70;99.90;;;;;;5064419;28;20627;-83
2022/08/21 13:08:14;;;;;;;10.02;2.10;;;25.70;99.90;;;;;;5054643;28;20556;-83
2022/08/21 13:10:42;;;;;;;5.70;1.98;;;25.50;99.90;;;;;;5068018;28;20715;-84